sensor_id;sensor_type;location;lat;lon;timestamp;temperature;humidity
54946;DHT22;40846;44.788;20.486;2022-11-15T00:00:44;256.00;2252.80
54946;DHT22;40846;44.788;20.486;2022-11-15T00:03:10;256.00;2252.80
54946;DHT22;40846;44.788;20.486;2022-11-15T00:08:04;231.30;2252.80
54946;DHT22;40846;44.788;20.486;2022-11-15T00:10:30;231.10;2252.80
54946;DHT22;40846;44.788;20.486;2022-11-15T00:12:55;231.20;2252.80
54946;DHT22;40846;44.788;20.486;2022-11-15T00:15:21;231.10;2252.80
54946;DHT22;40846;44.788;20.486;2022-11-15T00:17:49;231.00;2252.80
54946;DHT22;40846;44.788;20.486;2022-11-15T00:20:15;231.30;2252.80
54946;DHT22;40846;44.788;20.486;2022-11-15T00:22:41;231.20;2252.80
54946;DHT22;40846;44.788;20.486;2022-11-15T00:25:07;231.00;2252.80
54946;DHT22;40846;44.788;20.486;2022-11-15T00:54:19;231.20;2252.80
54946;DHT22;40846;44.788;20.486;2022-11-15T01:13:47;230.80;2252.80
54946;DHT22;40846;44.788;20.486;2022-11-15T01:16:15;230.70;2252.80
54946;DHT22;40846;44.788;20.486;2022-11-15T01:18:43;230.70;2252.80
54946;DHT22;40846;44.788;20.486;2022-11-15T01:21:11;230.70;2252.80
54946;DHT22;40846;44.788;20.486;2022-11-15T01:23:37;230.80;2252.80
54946;DHT22;40846;44.788;20.486;2022-11-15T01:38:17;231.30;2252.80
54946;DHT22;40846;44.788;20.486;2022-11-15T01:40:42;230.90;2252.80
54946;DHT22;40846;44.788;20.486;2022-11-15T01:43:22;231.00;2252.80
54946;DHT22;40846;44.788;20.486;2022-11-15T01:45:52;230.80;2252.80
54946;DHT22;40846;44.788;20.486;2022-11-15T01:48:22;230.70;2252.80
54946;DHT22;40846;44.788;20.486;2022-11-15T01:55:41;230.70;2252.80
54946;DHT22;40846;44.788;20.486;2022-11-15T01:58:07;230.60;2252.80
54946;DHT22;40846;44.788;20.486;2022-11-15T02:00:33;230.60;2252.80
54946;DHT22;40846;44.788;20.486;2022-11-15T02:02:59;230.70;2252.80
54946;DHT22;40846;44.788;20.486;2022-11-15T02:05:25;230.80;2252.80
54946;DHT22;40846;44.788;20.486;2022-11-15T02:07:51;230.80;2252.80
54946;DHT22;40846;44.788;20.486;2022-11-15T02:10:19;230.80;2252.80
54946;DHT22;40846;44.788;20.486;2022-11-15T02:12:45;230.70;2252.80
54946;DHT22;40846;44.788;20.486;2022-11-15T02:15:12;230.60;2252.80
54946;DHT22;40846;44.788;20.486;2022-11-15T02:20:36;230.60;2252.80
54946;DHT22;40846;44.788;20.486;2022-11-15T02:29:45;230.60;2252.80
54946;DHT22;40846;44.788;20.486;2022-11-15T02:32:15;230.80;2252.80
54946;DHT22;40846;44.788;20.486;2022-11-15T02:34:58;230.80;2252.80
54946;DHT22;40846;44.788;20.486;2022-11-15T02:37:34;230.80;2252.80
54946;DHT22;40846;44.788;20.486;2022-11-15T02:40:21;230.90;2252.80
54946;DHT22;40846;44.788;20.486;2022-11-15T02:42:54;231.00;2252.80
54946;DHT22;40846;44.788;20.486;2022-11-15T02:45:47;231.10;2252.80
54946;DHT22;40846;44.788;20.486;2022-11-15T02:48:15;231.10;2252.80
54946;DHT22;40846;44.788;20.486;2022-11-15T02:50:42;231.00;2252.80
54946;DHT22;40846;44.788;20.486;2022-11-15T02:53:09;231.00;2252.80
54946;DHT22;40846;44.788;20.486;2022-11-15T02:55:43;231.00;2252.80
54946;DHT22;40846;44.788;20.486;2022-11-15T03:07:14;230.80;2252.80
54946;DHT22;40846;44.788;20.486;2022-11-15T03:09:51;230.80;2252.80
54946;DHT22;40846;44.788;20.486;2022-11-15T03:12:48;230.90;2252.80
54946;DHT22;40846;44.788;20.486;2022-11-15T03:15:20;231.00;2252.80
54946;DHT22;40846;44.788;20.486;2022-11-15T03:18:02;231.10;2252.80
54946;DHT22;40846;44.788;20.486;2022-11-15T03:20:30;231.20;2252.80
54946;DHT22;40846;44.788;20.486;2022-11-15T03:23:05;256.10;2252.80
54946;DHT22;40846;44.788;20.486;2022-11-15T03:25:34;256.00;2252.80
54946;DHT22;40846;44.788;20.486;2022-11-15T03:28:04;256.10;2252.80
54946;DHT22;40846;44.788;20.486;2022-11-15T03:30:32;256.40;2252.80
54946;DHT22;40846;44.788;20.486;2022-11-15T03:33:00;256.20;2252.80
54946;DHT22;40846;44.788;20.486;2022-11-15T03:55:17;256.10;2252.80
54946;DHT22;40846;44.788;20.486;2022-11-15T03:57:43;231.20;2252.80
54946;DHT22;40846;44.788;20.486;2022-11-15T04:00:10;231.00;2252.80
54946;DHT22;40846;44.788;20.486;2022-11-15T04:02:36;231.10;2252.80
54946;DHT22;40846;44.788;20.486;2022-11-15T06:51:58;231.00;2252.80
54946;DHT22;40846;44.788;20.486;2022-11-15T06:54:24;231.00;2252.80
54946;DHT22;40846;44.788;20.486;2022-11-15T06:56:49;230.80;2252.80
54946;DHT22;40846;44.788;20.486;2022-11-15T06:59:15;230.70;2252.80
54946;DHT22;40846;44.788;20.486;2022-11-15T07:31:06;231.30;2252.80
54946;DHT22;40846;44.788;20.486;2022-11-15T07:33:32;231.30;2252.80
54946;DHT22;40846;44.788;20.486;2022-11-15T08:05:50;256.90;2252.80
54946;DHT22;40846;44.788;20.486;2022-11-15T08:08:16;256.60;2252.80
54946;DHT22;40846;44.788;20.486;2022-11-15T08:10:42;256.60;2252.80
54946;DHT22;40846;44.788;20.486;2022-11-15T08:13:10;256.60;2252.80
54946;DHT22;40846;44.788;20.486;2022-11-15T08:15:37;281.70;2278.40
54946;DHT22;40846;44.788;20.486;2022-11-15T08:18:09;281.70;2278.40
54946;DHT22;40846;44.788;20.486;2022-11-15T08:23:03;282.50;2278.40
54946;DHT22;40846;44.788;20.486;2022-11-15T08:27:58;307.80;2304.00
54946;DHT22;40846;44.788;20.486;2022-11-15T08:32:52;333.40;2329.60
54946;DHT22;40846;44.788;20.486;2022-11-15T08:35:19;333.40;2329.60
54946;DHT22;40846;44.788;20.486;2022-11-15T08:37:45;333.30;2329.60
54946;DHT22;40846;44.788;20.486;2022-11-15T08:40:11;333.20;2329.60
54946;DHT22;40846;44.788;20.486;2022-11-15T08:42:36;333.30;2329.60
54946;DHT22;40846;44.788;20.486;2022-11-15T08:45:03;333.10;2329.60
54946;DHT22;40846;44.788;20.486;2022-11-15T08:47:29;333.10;2329.60
54946;DHT22;40846;44.788;20.486;2022-11-15T08:49:54;333.00;2329.60
54946;DHT22;40846;44.788;20.486;2022-11-15T08:52:20;333.10;2329.60
54946;DHT22;40846;44.788;20.486;2022-11-15T08:54:46;333.10;2329.60
54946;DHT22;40846;44.788;20.486;2022-11-15T08:57:12;333.20;2329.60
54946;DHT22;40846;44.788;20.486;2022-11-15T08:59:38;333.20;2329.60
54946;DHT22;40846;44.788;20.486;2022-11-15T09:02:04;333.20;2329.60
54946;DHT22;40846;44.788;20.486;2022-11-15T09:04:31;333.20;2329.60
54946;DHT22;40846;44.788;20.486;2022-11-15T09:06:56;333.10;2329.60
54946;DHT22;40846;44.788;20.486;2022-11-15T09:09:22;333.70;2329.60
54946;DHT22;40846;44.788;20.486;2022-11-15T09:11:48;333.60;2329.60
54946;DHT22;40846;44.788;20.486;2022-11-15T09:14:14;333.60;2329.60
54946;DHT22;40846;44.788;20.486;2022-11-15T09:16:40;333.60;2329.60
54946;DHT22;40846;44.788;20.486;2022-11-15T09:19:06;358.50;2329.60
54946;DHT22;40846;44.788;20.486;2022-11-15T09:21:32;358.70;2329.60
54946;DHT22;40846;44.788;20.486;2022-11-15T09:23:58;358.70;2329.60
54946;DHT22;40846;44.788;20.486;2022-11-15T09:26:23;358.80;2329.60
54946;DHT22;40846;44.788;20.486;2022-11-15T09:28:49;358.70;2329.60
54946;DHT22;40846;44.788;20.486;2022-11-15T09:31:15;358.50;2329.60
54946;DHT22;40846;44.788;20.486;2022-11-15T09:33:44;358.50;2329.60
54946;DHT22;40846;44.788;20.486;2022-11-15T09:36:10;358.40;2329.60
54946;DHT22;40846;44.788;20.486;2022-11-15T09:38:36;333.60;2329.60
54946;DHT22;40846;44.788;20.486;2022-11-15T09:46:49;333.40;2329.60
54946;DHT22;40846;44.788;20.486;2022-11-15T09:49:17;333.40;2329.60
54946;DHT22;40846;44.788;20.486;2022-11-15T09:51:50;333.30;2329.60
54946;DHT22;40846;44.788;20.486;2022-11-15T09:54:35;333.40;2329.60
54946;DHT22;40846;44.788;20.486;2022-11-15T09:59:55;333.50;2329.60
54946;DHT22;40846;44.788;20.486;2022-11-15T10:05:29;333.70;2329.60
54946;DHT22;40846;44.788;20.486;2022-11-15T10:08:10;358.50;2329.60
54946;DHT22;40846;44.788;20.486;2022-11-15T10:10:43;358.60;2329.60
54946;DHT22;40846;44.788;20.486;2022-11-15T10:13:33;358.60;2329.60
54946;DHT22;40846;44.788;20.486;2022-11-15T10:16:17;358.70;2329.60
54946;DHT22;40846;44.788;20.486;2022-11-15T10:24:26;358.80;2329.60
54946;DHT22;40846;44.788;20.486;2022-11-15T10:26:55;358.80;2329.60
54946;DHT22;40846;44.788;20.486;2022-11-15T10:29:22;358.90;2329.60
54946;DHT22;40846;44.788;20.486;2022-11-15T10:31:48;359.00;2329.60
54946;DHT22;40846;44.788;20.486;2022-11-15T10:34:17;359.00;2329.60
54946;DHT22;40846;44.788;20.486;2022-11-15T10:36:59;358.90;2329.60
54946;DHT22;40846;44.788;20.486;2022-11-15T10:39:27;359.10;2329.60
54946;DHT22;40846;44.788;20.486;2022-11-15T10:41:53;359.00;2329.60
54946;DHT22;40846;44.788;20.486;2022-11-15T10:44:23;359.00;2329.60
54946;DHT22;40846;44.788;20.486;2022-11-15T10:49:26;384.10;2329.60
54946;DHT22;40846;44.788;20.486;2022-11-15T10:52:02;384.30;2329.60
54946;DHT22;40846;44.788;20.486;2022-11-15T10:57:28;384.30;2329.60
54946;DHT22;40846;44.788;20.486;2022-11-15T10:59:58;384.20;2329.60
54946;DHT22;40846;44.788;20.486;2022-11-15T11:04:59;384.20;2329.60
54946;DHT22;40846;44.788;20.486;2022-11-15T11:07:31;384.10;2329.60
54946;DHT22;40846;44.788;20.486;2022-11-15T11:12:32;384.10;2329.60
54946;DHT22;40846;44.788;20.486;2022-11-15T11:15:00;384.00;2329.60
54946;DHT22;40846;44.788;20.486;2022-11-15T11:42:26;359.10;2329.60
54946;DHT22;40846;44.788;20.486;2022-11-15T11:45:27;359.10;2329.60
54946;DHT22;40846;44.788;20.486;2022-11-15T11:48:07;359.10;2329.60
54946;DHT22;40846;44.788;20.486;2022-11-15T11:50:37;359.20;2329.60
54946;DHT22;40846;44.788;20.486;2022-11-15T11:53:13;359.10;2329.60
54946;DHT22;40846;44.788;20.486;2022-11-15T11:55:52;359.20;2329.60
54946;DHT22;40846;44.788;20.486;2022-11-15T11:58:47;359.20;2329.60
54946;DHT22;40846;44.788;20.486;2022-11-15T12:01:22;359.10;2329.60
54946;DHT22;40846;44.788;20.486;2022-11-15T12:04:02;359.10;2329.60
54946;DHT22;40846;44.788;20.486;2022-11-15T12:11:49;358.90;2329.60
54946;DHT22;40846;44.788;20.486;2022-11-15T12:17:12;358.80;2329.60
54946;DHT22;40846;44.788;20.486;2022-11-15T12:19:41;358.70;2329.60
54946;DHT22;40846;44.788;20.486;2022-11-15T12:22:26;358.70;2329.60
54946;DHT22;40846;44.788;20.486;2022-11-15T12:25:14;358.70;2329.60
54946;DHT22;40846;44.788;20.486;2022-11-15T12:27:45;358.70;2329.60
54946;DHT22;40846;44.788;20.486;2022-11-15T12:30:15;358.80;2329.60
54946;DHT22;40846;44.788;20.486;2022-11-15T12:33:02;358.80;2329.60
54946;DHT22;40846;44.788;20.486;2022-11-15T12:35:42;358.80;2329.60
54946;DHT22;40846;44.788;20.486;2022-11-15T12:38:12;358.90;2329.60
54946;DHT22;40846;44.788;20.486;2022-11-15T12:41:11;359.00;2329.60
54946;DHT22;40846;44.788;20.486;2022-11-15T12:43:54;359.00;2329.60
54946;DHT22;40846;44.788;20.486;2022-11-15T12:59:49;358.70;2329.60
54946;DHT22;40846;44.788;20.486;2022-11-15T13:02:19;358.60;2329.60
54946;DHT22;40846;44.788;20.486;2022-11-15T13:04:47;358.60;2329.60
54946;DHT22;40846;44.788;20.486;2022-11-15T13:10:07;358.90;2329.60
54946;DHT22;40846;44.788;20.486;2022-11-15T13:17:51;358.80;2329.60
54946;DHT22;40846;44.788;20.486;2022-11-15T13:30:58;358.80;2329.60
54946;DHT22;40846;44.788;20.486;2022-11-15T13:33:25;358.70;2329.60
54946;DHT22;40846;44.788;20.486;2022-11-15T13:35:56;358.70;2329.60
54946;DHT22;40846;44.788;20.486;2022-11-15T13:38:29;358.80;2329.60
54946;DHT22;40846;44.788;20.486;2022-11-15T13:40:56;358.80;2329.60
54946;DHT22;40846;44.788;20.486;2022-11-15T13:46:13;358.70;2329.60
54946;DHT22;40846;44.788;20.486;2022-11-15T13:48:41;358.70;2329.60
54946;DHT22;40846;44.788;20.486;2022-11-15T13:51:15;358.70;2329.60
54946;DHT22;40846;44.788;20.486;2022-11-15T13:53:50;358.70;2329.60
54946;DHT22;40846;44.788;20.486;2022-11-15T13:56:18;358.70;2329.60
54946;DHT22;40846;44.788;20.486;2022-11-15T13:58:44;358.70;2329.60
54946;DHT22;40846;44.788;20.486;2022-11-15T14:01:18;358.70;2329.60
54946;DHT22;40846;44.788;20.486;2022-11-15T14:03:59;358.80;2329.60
54946;DHT22;40846;44.788;20.486;2022-11-15T14:06:29;358.90;2329.60
54946;DHT22;40846;44.788;20.486;2022-11-15T14:11:37;358.80;2329.60
54946;DHT22;40846;44.788;20.486;2022-11-15T14:19:11;358.80;2329.60
54946;DHT22;40846;44.788;20.486;2022-11-15T14:22:06;358.80;2329.60
54946;DHT22;40846;44.788;20.486;2022-11-15T14:24:30;358.90;2329.60
54946;DHT22;40846;44.788;20.486;2022-11-15T14:26:57;358.90;2329.60
54946;DHT22;40846;44.788;20.486;2022-11-15T14:29:29;358.80;2329.60
54946;DHT22;40846;44.788;20.486;2022-11-15T14:32:42;358.80;2329.60
54946;DHT22;40846;44.788;20.486;2022-11-15T14:35:18;358.70;2329.60
54946;DHT22;40846;44.788;20.486;2022-11-15T14:37:45;358.60;2329.60
54946;DHT22;40846;44.788;20.486;2022-11-15T14:40:19;358.70;2329.60
54946;DHT22;40846;44.788;20.486;2022-11-15T14:42:46;358.70;2329.60
54946;DHT22;40846;44.788;20.486;2022-11-15T14:45:18;358.70;2329.60
54946;DHT22;40846;44.788;20.486;2022-11-15T14:47:44;358.70;2329.60
54946;DHT22;40846;44.788;20.486;2022-11-15T14:50:15;358.70;2329.60
54946;DHT22;40846;44.788;20.486;2022-11-15T14:52:41;358.60;2329.60
54946;DHT22;40846;44.788;20.486;2022-11-15T14:55:23;358.70;2329.60
54946;DHT22;40846;44.788;20.486;2022-11-15T14:57:50;358.80;2329.60
54946;DHT22;40846;44.788;20.486;2022-11-15T15:00:16;358.70;2329.60
54946;DHT22;40846;44.788;20.486;2022-11-15T15:02:43;358.70;2329.60
54946;DHT22;40846;44.788;20.486;2022-11-15T15:05:18;358.70;2329.60
54946;DHT22;40846;44.788;20.486;2022-11-15T15:07:45;358.70;2329.60
54946;DHT22;40846;44.788;20.486;2022-11-15T15:10:12;358.70;2329.60
54946;DHT22;40846;44.788;20.486;2022-11-15T15:12:38;358.70;2329.60
54946;DHT22;40846;44.788;20.486;2022-11-15T15:15:05;358.70;2329.60
54946;DHT22;40846;44.788;20.486;2022-11-15T15:17:31;358.70;2329.60
54946;DHT22;40846;44.788;20.486;2022-11-15T15:19:56;358.70;2329.60
54946;DHT22;40846;44.788;20.486;2022-11-15T15:22:22;358.70;2329.60
54946;DHT22;40846;44.788;20.486;2022-11-15T15:24:51;358.60;2329.60
54946;DHT22;40846;44.788;20.486;2022-11-15T15:27:17;358.60;2329.60
54946;DHT22;40846;44.788;20.486;2022-11-15T15:29:43;358.50;2329.60
54946;DHT22;40846;44.788;20.486;2022-11-15T15:32:11;358.50;2329.60
54946;DHT22;40846;44.788;20.486;2022-11-15T15:34:38;358.40;2329.60
54946;DHT22;40846;44.788;20.486;2022-11-15T15:37:23;358.40;2329.60
54946;DHT22;40846;44.788;20.486;2022-11-15T15:39:54;333.70;2329.60
54946;DHT22;40846;44.788;20.486;2022-11-15T15:42:20;333.70;2329.60
54946;DHT22;40846;44.788;20.486;2022-11-15T15:44:47;333.70;2329.60
54946;DHT22;40846;44.788;20.486;2022-11-15T15:47:20;333.70;2329.60
54946;DHT22;40846;44.788;20.486;2022-11-15T15:49:47;333.60;2329.60
54946;DHT22;40846;44.788;20.486;2022-11-15T15:52:12;333.60;2329.60
54946;DHT22;40846;44.788;20.486;2022-11-15T15:54:39;333.70;2329.60
54946;DHT22;40846;44.788;20.486;2022-11-15T15:57:06;333.50;2329.60
54946;DHT22;40846;44.788;20.486;2022-11-15T15:59:32;333.60;2329.60
54946;DHT22;40846;44.788;20.486;2022-11-15T16:01:58;333.70;2329.60
54946;DHT22;40846;44.788;20.486;2022-11-15T16:04:23;333.70;2329.60
54946;DHT22;40846;44.788;20.486;2022-11-15T16:06:49;358.60;2329.60
54946;DHT22;40846;44.788;20.486;2022-11-15T16:09:19;358.50;2329.60
54946;DHT22;40846;44.788;20.486;2022-11-15T16:12:05;358.50;2329.60
54946;DHT22;40846;44.788;20.486;2022-11-15T16:14:31;358.80;2329.60
54946;DHT22;40846;44.788;20.486;2022-11-15T16:16:57;358.70;2329.60
54946;DHT22;40846;44.788;20.486;2022-11-15T16:19:23;358.40;2329.60
54946;DHT22;40846;44.788;20.486;2022-11-15T16:21:49;333.70;2329.60
54946;DHT22;40846;44.788;20.486;2022-11-15T16:24:15;333.70;2329.60
54946;DHT22;40846;44.788;20.486;2022-11-15T16:26:40;333.70;2329.60
54946;DHT22;40846;44.788;20.486;2022-11-15T16:29:08;333.70;2329.60
54946;DHT22;40846;44.788;20.486;2022-11-15T16:31:34;358.40;2329.60
54946;DHT22;40846;44.788;20.486;2022-11-15T16:34:00;358.40;2329.60
54946;DHT22;40846;44.788;20.486;2022-11-15T16:36:26;358.50;2329.60
54946;DHT22;40846;44.788;20.486;2022-11-15T16:38:55;358.50;2329.60
54946;DHT22;40846;44.788;20.486;2022-11-15T16:41:23;358.50;2329.60
54946;DHT22;40846;44.788;20.486;2022-11-15T16:43:49;358.50;2329.60
54946;DHT22;40846;44.788;20.486;2022-11-15T16:46:19;358.50;2329.60
54946;DHT22;40846;44.788;20.486;2022-11-15T16:48:45;358.50;2329.60
54946;DHT22;40846;44.788;20.486;2022-11-15T16:51:11;358.40;2329.60
54946;DHT22;40846;44.788;20.486;2022-11-15T16:53:36;358.40;2329.60
54946;DHT22;40846;44.788;20.486;2022-11-15T16:56:02;358.40;2329.60
54946;DHT22;40846;44.788;20.486;2022-11-15T16:58:28;333.70;2329.60
54946;DHT22;40846;44.788;20.486;2022-11-15T17:03:24;358.50;2329.60
54946;DHT22;40846;44.788;20.486;2022-11-15T17:05:50;333.70;2329.60
54946;DHT22;40846;44.788;20.486;2022-11-15T17:08:16;333.70;2329.60
54946;DHT22;40846;44.788;20.486;2022-11-15T17:10:42;333.40;2329.60
54946;DHT22;40846;44.788;20.486;2022-11-15T17:13:12;333.50;2329.60
54946;DHT22;40846;44.788;20.486;2022-11-15T17:15:38;333.50;2329.60
54946;DHT22;40846;44.788;20.486;2022-11-15T17:18:05;333.50;2329.60
54946;DHT22;40846;44.788;20.486;2022-11-15T17:20:31;333.50;2329.60
54946;DHT22;40846;44.788;20.486;2022-11-15T17:25:23;333.50;2329.60
54946;DHT22;40846;44.788;20.486;2022-11-15T17:27:49;333.40;2329.60
54946;DHT22;40846;44.788;20.486;2022-11-15T17:30:15;333.30;2329.60
54946;DHT22;40846;44.788;20.486;2022-11-15T17:32:41;333.30;2329.60
54946;DHT22;40846;44.788;20.486;2022-11-15T17:35:09;333.30;2329.60
54946;DHT22;40846;44.788;20.486;2022-11-15T17:37:35;333.30;2329.60
54946;DHT22;40846;44.788;20.486;2022-11-15T17:40:01;333.30;2329.60
54946;DHT22;40846;44.788;20.486;2022-11-15T17:42:27;333.30;2329.60
54946;DHT22;40846;44.788;20.486;2022-11-15T17:44:53;333.30;2329.60
54946;DHT22;40846;44.788;20.486;2022-11-15T17:47:18;333.20;2329.60
54946;DHT22;40846;44.788;20.486;2022-11-15T17:49:44;333.20;2329.60
54946;DHT22;40846;44.788;20.486;2022-11-15T17:52:10;333.20;2329.60
54946;DHT22;40846;44.788;20.486;2022-11-15T17:54:36;333.10;2329.60
54946;DHT22;40846;44.788;20.486;2022-11-15T17:57:02;333.10;2329.60
54946;DHT22;40846;44.788;20.486;2022-11-15T17:59:27;333.10;2329.60
54946;DHT22;40846;44.788;20.486;2022-11-15T18:01:53;333.10;2329.60
54946;DHT22;40846;44.788;20.486;2022-11-15T18:04:22;333.20;2329.60
54946;DHT22;40846;44.788;20.486;2022-11-15T18:06:52;333.20;2329.60
54946;DHT22;40846;44.788;20.486;2022-11-15T18:09:22;333.00;2329.60
54946;DHT22;40846;44.788;20.486;2022-11-15T18:11:49;333.00;2329.60
54946;DHT22;40846;44.788;20.486;2022-11-15T18:14:17;333.00;2329.60
54946;DHT22;40846;44.788;20.486;2022-11-15T18:16:43;333.00;2329.60
54946;DHT22;40846;44.788;20.486;2022-11-15T18:21:39;333.20;2329.60
54946;DHT22;40846;44.788;20.486;2022-11-15T18:24:35;332.90;2329.60
54946;DHT22;40846;44.788;20.486;2022-11-15T18:27:04;332.90;2329.60
54946;DHT22;40846;44.788;20.486;2022-11-15T18:29:30;332.90;2329.60
54946;DHT22;40846;44.788;20.486;2022-11-15T18:32:02;333.00;2329.60
54946;DHT22;40846;44.788;20.486;2022-11-15T18:34:32;332.90;2329.60
54946;DHT22;40846;44.788;20.486;2022-11-15T18:37:04;332.80;2329.60
54946;DHT22;40846;44.788;20.486;2022-11-15T18:39:29;332.80;2329.60
54946;DHT22;40846;44.788;20.486;2022-11-15T18:41:55;332.90;2329.60
54946;DHT22;40846;44.788;20.486;2022-11-15T18:44:21;332.90;2329.60
54946;DHT22;40846;44.788;20.486;2022-11-15T18:46:47;333.00;2329.60
54946;DHT22;40846;44.788;20.486;2022-11-15T18:49:14;332.80;2329.60
54946;DHT22;40846;44.788;20.486;2022-11-15T18:51:42;332.80;2329.60
54946;DHT22;40846;44.788;20.486;2022-11-15T18:54:10;308.10;2304.00
54946;DHT22;40846;44.788;20.486;2022-11-15T18:56:36;308.00;2304.00
54946;DHT22;40846;44.788;20.486;2022-11-15T18:59:02;332.90;2329.60
54946;DHT22;40846;44.788;20.486;2022-11-15T19:06:40;332.80;2329.60
54946;DHT22;40846;44.788;20.486;2022-11-15T19:09:07;307.80;2304.00
54946;DHT22;40846;44.788;20.486;2022-11-15T19:11:36;307.70;2304.00
54946;DHT22;40846;44.788;20.486;2022-11-15T19:14:14;307.60;2304.00
54946;DHT22;40846;44.788;20.486;2022-11-15T19:16:42;307.60;2304.00
54946;DHT22;40846;44.788;20.486;2022-11-15T19:19:17;307.50;2304.00
54946;DHT22;40846;44.788;20.486;2022-11-15T19:21:43;307.50;2304.00
54946;DHT22;40846;44.788;20.486;2022-11-15T19:24:09;307.50;2304.00
54946;DHT22;40846;44.788;20.486;2022-11-15T19:26:35;307.50;2304.00
54946;DHT22;40846;44.788;20.486;2022-11-15T19:29:06;307.50;2304.00
54946;DHT22;40846;44.788;20.486;2022-11-15T19:31:32;307.50;2304.00
54946;DHT22;40846;44.788;20.486;2022-11-15T19:34:03;307.50;2304.00
54946;DHT22;40846;44.788;20.486;2022-11-15T19:36:33;307.50;2304.00
54946;DHT22;40846;44.788;20.486;2022-11-15T19:39:01;307.50;2304.00
54946;DHT22;40846;44.788;20.486;2022-11-15T19:41:33;307.40;2304.00
54946;DHT22;40846;44.788;20.486;2022-11-15T19:43:59;307.40;2304.00
54946;DHT22;40846;44.788;20.486;2022-11-15T19:46:25;307.40;2304.00
54946;DHT22;40846;44.788;20.486;2022-11-15T19:48:52;307.50;2304.00
54946;DHT22;40846;44.788;20.486;2022-11-15T19:51:19;307.40;2304.00
54946;DHT22;40846;44.788;20.486;2022-11-15T19:53:51;307.30;2304.00
54946;DHT22;40846;44.788;20.486;2022-11-15T19:58:51;307.70;2304.00
54946;DHT22;40846;44.788;20.486;2022-11-15T20:03:47;307.70;2304.00
54946;DHT22;40846;44.788;20.486;2022-11-15T20:28:19;282.40;2278.40
54946;DHT22;40846;44.788;20.486;2022-11-15T20:30:46;282.10;2278.40
54946;DHT22;40846;44.788;20.486;2022-11-15T21:39:35;282.30;2278.40
54946;DHT22;40846;44.788;20.486;2022-11-15T21:42:00;281.90;2278.40
54946;DHT22;40846;44.788;20.486;2022-11-15T21:46:52;282.20;2278.40
54946;DHT22;40846;44.788;20.486;2022-11-15T21:49:18;281.70;2278.40
54946;DHT22;40846;44.788;20.486;2022-11-15T21:51:45;281.70;2278.40
54946;DHT22;40846;44.788;20.486;2022-11-15T21:54:11;281.90;2278.40
54946;DHT22;40846;44.788;20.486;2022-11-15T21:56:36;281.60;2278.40
54946;DHT22;40846;44.788;20.486;2022-11-15T21:59:02;281.70;2278.40
54946;DHT22;40846;44.788;20.486;2022-11-15T22:11:33;281.90;2278.40
54946;DHT22;40846;44.788;20.486;2022-11-15T22:13:59;256.90;2252.80
54946;DHT22;40846;44.788;20.486;2022-11-15T22:16:25;256.90;2252.80
54946;DHT22;40846;44.788;20.486;2022-11-15T22:18:51;256.80;2252.80
54946;DHT22;40846;44.788;20.486;2022-11-15T22:21:17;256.70;2252.80
54946;DHT22;40846;44.788;20.486;2022-11-15T22:23:44;256.70;2252.80
54946;DHT22;40846;44.788;20.486;2022-11-15T22:26:14;256.70;2252.80
54946;DHT22;40846;44.788;20.486;2022-11-15T22:28:41;256.70;2252.80
54946;DHT22;40846;44.788;20.486;2022-11-15T22:31:07;256.70;2252.80
54946;DHT22;40846;44.788;20.486;2022-11-15T22:33:34;256.70;2252.80
54946;DHT22;40846;44.788;20.486;2022-11-15T22:36:00;256.80;2252.80
54946;DHT22;40846;44.788;20.486;2022-11-15T22:38:27;256.80;2252.80
54946;DHT22;40846;44.788;20.486;2022-11-15T22:40:53;256.80;2252.80
54946;DHT22;40846;44.788;20.486;2022-11-15T22:43:20;256.80;2252.80
54946;DHT22;40846;44.788;20.486;2022-11-15T22:45:52;256.80;2252.80
54946;DHT22;40846;44.788;20.486;2022-11-15T22:48:19;256.90;2252.80
54946;DHT22;40846;44.788;20.486;2022-11-15T22:50:45;256.90;2252.80
54946;DHT22;40846;44.788;20.486;2022-11-15T22:53:11;256.90;2252.80
54946;DHT22;40846;44.788;20.486;2022-11-15T22:55:38;256.90;2252.80
54946;DHT22;40846;44.788;20.486;2022-11-15T22:58:04;256.80;2252.80
54946;DHT22;40846;44.788;20.486;2022-11-15T23:00:29;256.70;2252.80
54946;DHT22;40846;44.788;20.486;2022-11-15T23:02:55;256.70;2252.80
54946;DHT22;40846;44.788;20.486;2022-11-15T23:05:21;256.70;2252.80
54946;DHT22;40846;44.788;20.486;2022-11-15T23:07:49;256.70;2252.80
54946;DHT22;40846;44.788;20.486;2022-11-15T23:10:15;256.60;2252.80
54946;DHT22;40846;44.788;20.486;2022-11-15T23:13:10;256.60;2252.80
54946;DHT22;40846;44.788;20.486;2022-11-15T23:15:44;256.60;2252.80
54946;DHT22;40846;44.788;20.486;2022-11-15T23:18:35;256.60;2252.80
54946;DHT22;40846;44.788;20.486;2022-11-15T23:21:08;256.20;2252.80
